ADDS TAF Board (Experimental) INFO

IDs: Format: Expanded Condensed

Updated at: 0521 UTC 21 Oct 2014

KSAN - San Diego Intl Arpt, CA, US

Issued at 0520 UTC 21 Oct 2014
Time0451Z21/06Z21/07Z21/08Z21/09Z21/10Z21/11Z21/12Z21/13Z21/14Z21/15Z21/16Z21/17Z21/18Z
TypeOBSPRVLPRVLPRVLPRVLPRVLPRVLPRVLPRVLPRVLPRVLPRVLPRVLPRVL
VIS10>6>6>6>6>6>6>6>6>6>6>6>6>6
CIG16171717171717171717171717--
CoverOVCOVCOVCOVCOVCOVCOVCOVCOVCOVCOVCOVCOVCSCT
FltCatMVFRMVFRMVFRMVFRMVFRMVFRMVFRMVFRMVFRMVFRMVFRMVFRMVFRVFR
WX----------------------------
WDir340VRBVRBVRBVRBVRBVRBVRBVRBVRBVRBVRBVRBVRB
WSpd53333333333334
WGst----------------------------
R09/27
XWnd4VRBVRBVRBVRBVRBVRBVRBVRBVRBVRBVRBVRBVRB
HWnd-3VRBVRBVRBVRBVRBVRBVRBVRBVRBVRBVRBVRBVRB
Raw TAF
KSAN 210520Z 2106/2212 VRB03KT P6SM OVC017
  FM211730 VRB04KT P6SM SCT019
  FM212000 29008KT P6SM SKC
  FM220100 VRB04KT P6SM FEW014
  FM220500 VRB03KT P6SM BKN013


Raw METAR
KSAN 210451Z 34005KT 10SM OVC016 21/16 A2993 RMK AO2 SLP135 T02060161

TAF Board Legend

Hazard VFR MVFR IFR LIFR
Visibility (sm) >5 3≤X≤5 1≤X<3 <1
Ceiling (100 ft) >30 10≤X≤30 5≤X<10 <5
Wind Speed (kt) <10 10≤X<20 20≤X<30 ≥30
Wind Gust (kt) <15 15≤X<25 25≤X<35 ≥35
Weather No Wx Reported VCTS,-TS,-FZRA TS,FZRA +TS,+FZRA


Page loaded:  05:21 UTC  |   10:21 PM Pacific  |   11:21 PM Mountain  |   12:21 AM Central  |   01:21 AM Eastern

 

ADVISORIES

FORECASTS

FORECASTS

OBSERVATIONS

USER TOOLS

ABOUT US